createdAt,value
2019-01-10T00:00:08.471Z,2.30
2019-01-10T00:03:12.341Z,2.30
2019-01-10T00:06:15.534Z,2.30
2019-01-10T00:09:30.656Z,2.30
2019-01-10T00:12:39.419Z,2.20
2019-01-10T00:15:39.031Z,2.20
2019-01-10T00:18:42.332Z,2.20
2019-01-10T00:21:45.526Z,2.20
2019-01-10T00:24:48.723Z,2.20
2019-01-10T00:27:51.764Z,2.20
2019-01-10T00:30:54.914Z,2.20
2019-01-10T00:33:57.994Z,2.10
2019-01-10T00:37:01.096Z,2.10
2019-01-10T00:40:05.179Z,2.10
2019-01-10T00:43:08.307Z,2.10
2019-01-10T00:46:11.599Z,2.10
2019-01-10T00:49:15.717Z,2.10
2019-01-10T00:52:18.806Z,2.10
2019-01-10T00:55:21.902Z,2.10
2019-01-10T00:58:24.895Z,2.10
2019-01-10T01:01:28.134Z,2.10
2019-01-10T01:04:31.179Z,2.10
2019-01-10T01:07:34.312Z,2.00
2019-01-10T01:10:37.364Z,2.10
2019-01-10T01:13:40.608Z,2.10
2019-01-10T01:16:43.651Z,2.10
2019-01-10T01:19:46.915Z,2.10
2019-01-10T01:22:50.454Z,2.10
2019-01-10T01:25:53.795Z,2.10
2019-01-10T01:28:56.842Z,2.10
2019-01-10T01:32:00.186Z,2.10
2019-01-10T01:35:03.438Z,2.10
2019-01-10T01:38:06.778Z,2.10
2019-01-10T01:41:10.026Z,2.10
2019-01-10T01:44:13.267Z,2.10
2019-01-10T01:47:16.314Z,2.10
2019-01-10T01:50:21.474Z,2.10
2019-01-10T01:53:24.755Z,2.00
2019-01-10T01:56:28.003Z,2.10
2019-01-10T01:59:31.148Z,2.10
2019-01-10T02:02:34.280Z,2.10
2019-01-10T02:05:37.330Z,2.10
2019-01-10T02:08:40.779Z,2.10
2019-01-10T02:11:43.822Z,2.10
2019-01-10T02:14:47.063Z,2.10
2019-01-10T02:17:50.626Z,2.00
2019-01-10T02:20:53.755Z,2.00
2019-01-10T02:23:56.806Z,2.00
2019-01-10T02:27:00.152Z,2.00
2019-01-10T02:30:04.871Z,2.00
2019-01-10T02:33:08.136Z,2.10
2019-01-10T02:36:11.229Z,2.00
2019-01-10T02:39:14.471Z,1.90
2019-01-10T02:42:17.515Z,1.90
2019-01-10T02:45:20.650Z,1.90
2019-01-10T02:48:23.709Z,1.90
2019-01-10T02:51:27.354Z,1.90
2019-01-10T02:54:30.396Z,1.80
2019-01-10T02:57:33.534Z,1.80
2019-01-10T03:00:36.895Z,1.80
2019-01-10T03:03:40.027Z,1.80
2019-01-10T03:06:43.084Z,1.90
2019-01-10T03:09:46.238Z,1.90
2019-01-10T03:12:49.466Z,1.90
2019-01-10T03:15:52.711Z,1.90
2019-01-10T03:18:55.857Z,1.90
2019-01-10T03:21:58.952Z,1.90
2019-01-10T03:25:02.378Z,1.90
2019-01-10T03:28:05.546Z,1.90
2019-01-10T03:31:08.639Z,1.90
2019-01-10T03:34:11.730Z,1.90
2019-01-10T03:37:15.027Z,1.80
2019-01-10T03:40:21.978Z,1.90
2019-01-10T03:43:25.306Z,1.80
2019-01-10T03:46:28.403Z,1.90
2019-01-10T03:49:31.595Z,1.90
2019-01-10T03:52:34.692Z,1.80
2019-01-10T03:55:37.990Z,1.80
2019-01-10T03:58:41.290Z,1.70
2019-01-10T04:01:44.479Z,1.70
2019-01-10T04:04:47.576Z,1.70
2019-01-10T04:07:50.670Z,1.70
2019-01-10T04:10:54.992Z,1.70
2019-01-10T04:13:58.176Z,1.70
2019-01-10T04:17:02.298Z,1.70
2019-01-10T04:20:06.283Z,1.70
2019-01-10T04:23:09.511Z,1.70
2019-01-10T04:26:12.703Z,1.70
2019-01-10T04:29:15.803Z,1.70
2019-01-10T04:32:18.895Z,1.70
2019-01-10T04:35:21.983Z,1.70
2019-01-10T04:38:25.074Z,1.70
2019-01-10T04:41:28.318Z,1.70
2019-01-10T04:44:31.462Z,1.70
2019-01-10T04:47:34.623Z,1.70
2019-01-10T04:50:37.755Z,1.70
2019-01-10T04:53:40.879Z,1.70
2019-01-10T04:56:43.940Z,1.70
2019-01-10T04:59:47.274Z,1.60
2019-01-10T05:02:50.435Z,1.60
2019-01-10T05:05:53.706Z,1.60
2019-01-10T05:08:56.819Z,1.60
2019-01-10T05:12:00.080Z,1.60
2019-01-10T05:15:03.719Z,1.60
2019-01-10T05:18:08.201Z,1.50
2019-01-10T05:21:11.448Z,1.50
2019-01-10T05:24:14.686Z,1.50
2019-01-10T05:27:17.726Z,1.50
2019-01-10T05:30:23.076Z,1.40
2019-01-10T05:33:26.271Z,1.40
2019-01-10T05:36:29.458Z,1.50
2019-01-10T05:39:32.663Z,1.50
2019-01-10T05:42:35.823Z,1.40
2019-01-10T05:45:38.951Z,1.40
2019-01-10T05:48:47.187Z,1.40
2019-01-10T05:51:47.187Z,1.40
2019-01-10T05:54:50.393Z,1.40
2019-01-10T05:57:53.471Z,1.30
2019-01-10T06:00:58.251Z,1.30
2019-01-10T06:04:01.608Z,1.30
2019-01-10T06:07:04.851Z,1.30
2019-01-10T06:10:12.058Z,1.30
2019-01-10T06:13:15.195Z,1.30
2019-01-10T06:16:18.351Z,1.30
2019-01-10T06:19:26.675Z,1.20
2019-01-10T06:22:26.843Z,1.20
2019-01-10T06:25:30.057Z,1.10
2019-01-10T06:28:33.175Z,1.00
2019-01-10T06:31:36.411Z,1.00
2019-01-10T06:34:39.567Z,1.00
2019-01-10T06:37:42.763Z,1.00
2019-01-10T06:40:45.855Z,1.00
2019-01-10T06:43:48.951Z,1.00
2019-01-10T06:46:52.143Z,1.00
2019-01-10T06:49:55.238Z,1.00
2019-01-10T06:52:58.327Z,1.00
2019-01-10T06:56:01.423Z,1.00
2019-01-10T06:59:04.511Z,1.00
2019-01-10T07:02:07.713Z,1.00
2019-01-10T07:05:11.194Z,1.00
2019-01-10T07:08:14.403Z,1.00
2019-01-10T07:11:17.598Z,1.00
2019-01-10T07:14:20.699Z,1.10
2019-01-10T07:17:23.887Z,1.00
2019-01-10T07:20:26.986Z,1.10
2019-01-10T07:23:30.071Z,1.10
2019-01-10T07:26:33.333Z,1.10
2019-01-10T07:29:36.464Z,1.10
2019-01-10T07:32:39.563Z,1.10
2019-01-10T07:35:42.649Z,1.10
2019-01-10T07:38:45.744Z,1.10
2019-01-10T07:41:48.835Z,1.10
2019-01-10T07:44:51.965Z,1.10
2019-01-10T07:47:55.121Z,1.10
2019-01-10T07:50:58.252Z,1.10
2019-01-10T07:54:01.511Z,1.10
2019-01-10T07:57:04.818Z,1.10
2019-01-10T08:00:08.311Z,1.10
2019-01-10T08:03:11.453Z,1.10
2019-01-10T08:06:14.494Z,1.10
2019-01-10T08:09:19.110Z,1.10
2019-01-10T08:12:22.215Z,1.10
2019-01-10T08:15:25.474Z,1.10
2019-01-10T08:18:28.607Z,1.20
2019-01-10T08:21:31.776Z,1.20
2019-01-10T08:24:34.999Z,1.20
2019-01-10T08:27:38.262Z,1.20
2019-01-10T08:30:41.389Z,1.20
2019-01-10T08:33:45.878Z,1.30
2019-01-10T08:36:49.006Z,1.20
2019-01-10T08:39:52.242Z,1.30
2019-01-10T08:42:55.398Z,1.40
2019-01-10T08:45:58.746Z,1.50
2019-01-10T08:49:01.891Z,1.40
2019-01-10T08:52:05.335Z,1.30
2019-01-10T08:55:08.895Z,1.30
2019-01-10T08:58:12.167Z,1.30
2019-01-10T09:01:15.392Z,1.30
2019-01-10T09:04:18.887Z,1.20
2019-01-10T09:07:22.111Z,1.30
2019-01-10T09:10:30.518Z,1.30
2019-01-10T09:13:33.699Z,1.40
2019-01-10T09:16:38.412Z,1.40
2019-01-10T09:19:41.563Z,1.40
2019-01-10T09:22:45.891Z,1.50
2019-01-10T09:25:49.035Z,1.50
2019-01-10T09:28:52.170Z,1.60
2019-01-10T09:31:55.328Z,1.80
2019-01-10T09:34:58.973Z,2.00
2019-01-10T09:38:02.123Z,1.90
2019-01-10T09:41:05.360Z,1.90
2019-01-10T09:44:08.418Z,1.90
2019-01-10T09:47:11.543Z,1.90
2019-01-10T09:50:16.008Z,2.10
2019-01-10T09:53:21.390Z,2.20
2019-01-10T09:56:24.471Z,2.20
2019-01-10T09:59:27.566Z,2.20
2019-01-10T10:02:30.767Z,2.30
2019-01-10T10:05:34.366Z,2.20
2019-01-10T10:08:37.350Z,2.30
2019-01-10T10:11:40.551Z,2.30
2019-01-10T10:14:43.643Z,2.30
2019-01-10T10:17:47.036Z,2.30
2019-01-10T10:20:50.234Z,2.30
2019-01-10T10:23:53.436Z,2.20
2019-01-10T10:26:56.533Z,2.20
2019-01-10T10:29:59.723Z,2.30
2019-01-10T10:33:02.917Z,2.50
2019-01-10T10:36:06.422Z,3.20
2019-01-10T10:39:09.699Z,3.20
2019-01-10T10:42:13.115Z,3.10
2019-01-10T10:45:17.319Z,2.80
2019-01-10T10:48:20.432Z,3.00
2019-01-10T10:51:23.521Z,3.50
2019-01-10T10:54:26.714Z,3.60
2019-01-10T10:57:29.915Z,3.40
2019-01-10T11:00:33.766Z,3.20
2019-01-10T11:03:41.641Z,2.90
2019-01-10T11:06:45.043Z,2.70
2019-01-10T11:09:48.862Z,2.50
2019-01-10T11:12:52.546Z,2.50
2019-01-10T11:15:55.738Z,2.90
2019-01-10T11:18:58.946Z,3.00
2019-01-10T11:22:02.028Z,2.90
2019-01-10T11:25:07.175Z,3.10
2019-01-10T11:28:10.358Z,2.90
2019-01-10T11:31:13.499Z,2.80
2019-01-10T11:34:16.708Z,2.70
2019-01-10T11:37:19.922Z,2.60
2019-01-10T11:40:23.143Z,3.10
2019-01-10T11:43:26.407Z,4.10
2019-01-10T11:46:29.636Z,3.90
2019-01-10T11:49:32.983Z,3.50
2019-01-10T11:52:36.126Z,3.30
2019-01-10T11:55:39.483Z,2.90
2019-01-10T11:58:42.679Z,2.80
2019-01-10T12:01:46.066Z,2.80
2019-01-10T12:04:50.234Z,2.70
2019-01-10T12:07:55.102Z,2.90
2019-01-10T12:10:58.087Z,2.90
2019-01-10T12:14:01.218Z,2.90
2019-01-10T12:17:04.275Z,2.90
2019-01-10T12:20:09.050Z,2.70
2019-01-10T12:23:12.195Z,2.60
2019-01-10T12:26:15.436Z,3.10
2019-01-10T12:29:21.351Z,3.40
2019-01-10T12:32:24.486Z,3.40
2019-01-10T12:35:27.546Z,3.40
2019-01-10T12:38:30.811Z,3.30
2019-01-10T12:41:34.048Z,3.00
2019-01-10T12:44:37.382Z,2.90
2019-01-10T12:47:40.536Z,2.90
2019-01-10T12:50:44.942Z,2.80
2019-01-10T12:53:48.152Z,2.80
2019-01-10T12:56:51.491Z,3.00
2019-01-10T12:59:54.639Z,5.20
2019-01-10T13:02:57.877Z,7.10
2019-01-10T13:06:00.927Z,8.30
2019-01-10T13:09:06.792Z,8.30
2019-01-10T13:12:12.194Z,8.50
2019-01-10T13:15:17.506Z,8.40
2019-01-10T13:18:20.567Z,7.50
2019-01-10T13:21:23.698Z,6.70
2019-01-10T13:24:26.856Z,5.90
2019-01-10T13:27:30.304Z,5.60
2019-01-10T13:30:33.547Z,4.90
2019-01-10T13:33:41.182Z,4.70
2019-01-10T13:36:44.543Z,4.30
2019-01-10T13:39:49.324Z,4.10
2019-01-10T13:42:52.578Z,3.90
2019-01-10T13:45:55.676Z,3.90
2019-01-10T13:48:58.863Z,3.70
2019-01-10T13:52:02.161Z,3.60
2019-01-10T13:55:05.770Z,3.50
2019-01-10T13:58:09.066Z,3.20
2019-01-10T14:01:12.159Z,3.00
2019-01-10T14:04:15.460Z,3.00
2019-01-10T14:07:18.547Z,2.90
2019-01-10T14:10:21.749Z,2.80
2019-01-10T14:13:24.842Z,2.70
2019-01-10T14:16:28.031Z,2.70
2019-01-10T14:19:31.224Z,2.60
2019-01-10T14:22:34.630Z,2.40
2019-01-10T14:25:37.722Z,2.30
2019-01-10T14:28:40.814Z,2.10
2019-01-10T14:31:43.905Z,2.00
2019-01-10T14:34:47.406Z,2.00
2019-01-10T14:37:50.603Z,1.90
2019-01-10T14:40:53.695Z,1.90
2019-01-10T14:43:57.185Z,1.80
2019-01-10T14:47:00.751Z,1.90
2019-01-10T14:50:05.297Z,1.80
2019-01-10T14:53:08.767Z,1.80
2019-01-10T14:56:11.819Z,1.80
2019-01-10T14:59:15.051Z,1.80
2019-01-10T15:02:18.215Z,1.80
2019-01-10T15:05:21.342Z,1.70
2019-01-10T15:08:24.498Z,1.60
2019-01-10T15:11:27.635Z,1.50
2019-01-10T15:14:30.687Z,1.40
2019-01-10T15:17:34.875Z,1.40
2019-01-10T15:20:38.098Z,1.40
2019-01-10T15:23:41.262Z,1.30
2019-01-10T15:26:44.389Z,1.30
2019-01-10T15:29:47.618Z,1.30
2019-01-10T15:32:50.775Z,1.20
2019-01-10T15:35:56.292Z,1.10
2019-01-10T15:38:59.623Z,1.10
2019-01-10T15:42:02.926Z,1.00
2019-01-10T15:45:06.318Z,1.00
2019-01-10T15:48:09.951Z,0.90
2019-01-10T15:51:13.318Z,0.90
2019-01-10T15:54:16.455Z,0.80
2019-01-10T15:57:19.638Z,0.70
2019-01-10T16:00:24.309Z,0.60
2019-01-10T16:03:27.553Z,0.70
2019-01-10T16:06:30.787Z,0.60
2019-01-10T16:09:33.939Z,0.60
2019-01-10T16:12:37.066Z,0.70
2019-01-10T16:15:40.318Z,0.70
2019-01-10T16:18:43.347Z,0.60
2019-01-10T16:21:46.403Z,0.60
2019-01-10T16:24:49.648Z,0.50
2019-01-10T16:27:52.690Z,0.60
2019-01-10T16:30:56.028Z,0.60
2019-01-10T16:33:59.082Z,0.50
2019-01-10T16:37:02.214Z,0.50
2019-01-10T16:40:06.291Z,0.50
2019-01-10T16:43:12.022Z,0.40
2019-01-10T16:46:14.422Z,0.40
2019-01-10T16:49:17.773Z,0.30
2019-01-10T16:52:21.119Z,0.30
2019-01-10T16:55:24.362Z,0.40
2019-01-10T16:58:27.414Z,0.50
2019-01-10T17:01:30.664Z,0.50
2019-01-10T17:04:33.799Z,0.40
2019-01-10T17:07:36.939Z,0.20
2019-01-10T17:10:40.087Z,0.10
2019-01-10T17:13:43.182Z,0.00
2019-01-10T17:16:50.095Z,0.00
2019-01-10T17:19:51.322Z,-0.10
2019-01-10T17:22:54.504Z,-0.10
2019-01-10T17:25:57.607Z,-0.20
2019-01-10T17:29:00.690Z,-0.20
2019-01-10T17:32:03.890Z,-0.30
2019-01-10T17:35:10.051Z,-0.30
2019-01-10T17:38:13.149Z,-0.40
2019-01-10T17:41:16.442Z,-0.30
2019-01-10T17:44:19.536Z,-0.30
2019-01-10T17:47:22.627Z,-0.40
2019-01-10T17:50:25.778Z,-0.40
2019-01-10T17:53:29.015Z,-0.30
2019-01-10T17:56:32.730Z,-0.40
2019-01-10T17:59:35.818Z,-0.40
2019-01-10T18:02:39.014Z,-0.50
2019-01-10T18:05:42.207Z,-0.50
2019-01-10T18:08:45.016Z,-0.50
2019-01-10T18:11:48.274Z,-0.50
2019-01-10T18:14:51.417Z,-0.40
2019-01-10T18:17:54.455Z,-0.40
2019-01-10T18:20:57.794Z,-0.40
2019-01-10T18:24:00.845Z,-0.40
2019-01-10T18:27:04.014Z,-0.40
2019-01-10T18:30:12.118Z,-0.40
2019-01-10T18:33:15.280Z,-0.40
2019-01-10T18:36:18.335Z,-0.40
2019-01-10T18:39:21.707Z,-0.40
2019-01-10T18:42:24.483Z,-0.40
2019-01-10T18:45:30.294Z,-0.40
2019-01-10T18:48:39.585Z,-0.40
2019-01-10T18:51:38.728Z,-0.40
2019-01-10T18:54:41.805Z,-0.50
2019-01-10T18:57:46.111Z,-0.50
2019-01-10T19:00:49.320Z,-0.60
2019-01-10T19:03:52.738Z,-0.60
2019-01-10T19:06:55.819Z,-0.60
2019-01-10T19:09:59.029Z,-0.60
2019-01-10T19:13:02.306Z,-0.60
2019-01-10T19:16:06.074Z,-0.60
2019-01-10T19:19:09.207Z,-0.60
2019-01-10T19:22:12.391Z,-0.50
2019-01-10T19:25:15.598Z,-0.50
2019-01-10T19:28:19.063Z,-0.50
2019-01-10T19:31:22.191Z,-0.50
2019-01-10T19:34:26.670Z,-0.50
2019-01-10T19:37:29.712Z,-0.60
2019-01-10T19:40:32.844Z,-0.60
2019-01-10T19:43:35.895Z,-0.70
2019-01-10T19:46:39.258Z,-0.70
2019-01-10T19:49:42.494Z,-0.70
2019-01-10T19:52:45.835Z,-0.80
2019-01-10T19:55:48.990Z,-0.80
2019-01-10T19:58:52.122Z,-0.80
2019-01-10T20:01:55.273Z,-0.70
2019-01-10T20:04:58.606Z,-0.70
2019-01-10T20:08:01.762Z,-0.70
2019-01-10T20:11:05.199Z,-0.70
2019-01-10T20:14:09.284Z,-0.70
2019-01-10T20:17:13.556Z,-0.60
2019-01-10T20:20:21.201Z,-0.60
2019-01-10T20:23:28.091Z,-0.60
2019-01-10T20:26:31.214Z,-0.60
2019-01-10T20:29:34.422Z,-0.60
2019-01-10T20:32:37.467Z,-0.70
2019-01-10T20:35:40.702Z,-0.70
2019-01-10T20:38:43.750Z,-0.70
2019-01-10T20:41:46.888Z,-0.60
2019-01-10T20:44:49.935Z,-0.60
2019-01-10T20:47:53.207Z,-0.70
2019-01-10T20:50:56.222Z,-0.70
2019-01-10T20:53:59.426Z,-0.70
2019-01-10T20:57:02.511Z,-0.70
2019-01-10T21:00:09.462Z,-0.70
2019-01-10T21:03:13.705Z,-0.70
2019-01-10T21:06:17.331Z,-0.60
2019-01-10T21:09:21.680Z,-0.60
2019-01-10T21:12:25.461Z,-0.60
2019-01-10T21:15:30.127Z,-0.50
2019-01-10T21:18:34.024Z,-0.50
2019-01-10T21:21:37.455Z,-0.50
2019-01-10T21:24:41.407Z,-0.40
2019-01-10T21:27:44.809Z,-0.40
2019-01-10T21:30:48.370Z,-0.40
2019-01-10T21:33:52.374Z,-0.40
2019-01-10T21:36:58.032Z,-0.40
2019-01-10T21:40:02.586Z,-0.40
2019-01-10T21:43:06.107Z,-0.40
2019-01-10T21:46:09.419Z,-0.40
2019-01-10T21:49:13.390Z,-0.40
2019-01-10T21:52:17.407Z,-0.40
2019-01-10T21:55:21.253Z,-0.40
2019-01-10T21:58:25.442Z,-0.30
2019-01-10T22:01:28.659Z,-0.40
2019-01-10T22:04:32.320Z,-0.40
2019-01-10T22:07:35.991Z,-0.40
2019-01-10T22:10:39.367Z,-0.40
2019-01-10T22:13:42.799Z,-0.40
2019-01-10T22:16:46.063Z,-0.40
2019-01-10T22:19:49.873Z,-0.40
2019-01-10T22:22:53.171Z,-0.40
2019-01-10T22:25:56.718Z,-0.40
2019-01-10T22:29:00.174Z,-0.30
2019-01-10T22:32:04.974Z,-0.30
2019-01-10T22:35:10.331Z,-0.30
2019-01-10T22:38:14.006Z,-0.30
2019-01-10T22:41:17.901Z,-0.30
2019-01-10T22:44:22.306Z,-0.30
2019-01-10T22:47:25.530Z,-0.30
2019-01-10T22:50:30.700Z,-0.30
2019-01-10T22:53:34.441Z,-0.30
2019-01-10T22:56:37.676Z,-0.30
2019-01-10T22:59:40.938Z,-0.30
2019-01-10T23:02:44.284Z,-0.30
2019-01-10T23:05:47.426Z,-0.40
2019-01-10T23:08:50.982Z,-0.30
2019-01-10T23:11:54.019Z,-0.30
2019-01-10T23:14:57.150Z,-0.30
2019-01-10T23:18:00.418Z,-0.30
2019-01-10T23:21:03.610Z,-0.30
2019-01-10T23:24:11.407Z,-0.30
2019-01-10T23:27:14.611Z,-0.30
2019-01-10T23:30:23.635Z,-0.30
2019-01-10T23:33:27.039Z,-0.30
2019-01-10T23:36:30.234Z,-0.20
2019-01-10T23:39:33.435Z,-0.20
2019-01-10T23:42:36.626Z,-0.20
2019-01-10T23:45:39.821Z,-0.20
2019-01-10T23:48:42.911Z,-0.20
2019-01-10T23:51:46.043Z,-0.20
2019-01-10T23:54:49.095Z,-0.20
2019-01-10T23:57:52.369Z,-0.10
